Time;durP1;ratioP1;P1;durP2;ratioP2;P2;SDS_P1;SDS_P2;PMS_P1;PMS_P2;Temp;Humidity;BMP_temperature;BMP_pressure;BME280_temperature;BME280_humidity;BME280_pressure;Samples;Min_cycle;Max_cycle;Signal;HPM_P1;HPM_P2
2022/03/24 00:01:41;;;;;;;25.00;11.10;;;;;3.90;98268.00;;;;111011;1248;41902;-67
2022/03/24 00:04:10;;;;;;;25.20;10.90;;;;;3.80;98266.40;;;;110999;1249;41153;-66
2022/03/24 00:06:39;;;;;;;29.20;13.20;;;;;3.80;98262.20;;;;111208;1248;42020;-67
2022/03/24 00:09:08;;;;;;;24.90;11.20;;;;;3.70;98264.80;;;;111220;1247;43438;-65
2022/03/24 00:11:40;;;;;;;21.30;9.40;;;;;3.60;98270.80;;;;110981;1248;41153;-67
2022/03/24 00:14:10;;;;;;;23.00;11.10;;;;;3.50;98270.40;;;;110923;1250;41213;-67
2022/03/24 00:16:39;;;;;;;21.10;9.40;;;;;3.40;98272.60;;;;111038;1247;41942;-67
2022/03/24 00:19:08;;;;;;;17.80;8.10;;;;;3.30;98267.60;;;;111148;1250;41607;-65
2022/03/24 00:21:38;;;;;;;20.10;8.70;;;;;3.20;98265.20;;;;110913;1250;41892;-67
2022/03/24 00:24:08;;;;;;;20.20;8.60;;;;;3.10;98258.40;;;;111017;1250;41145;-66
2022/03/24 00:26:37;;;;;;;22.00;8.80;;;;;3.00;98253.80;;;;110901;1250;41513;-67
2022/03/24 00:29:09;;;;;;;19.90;8.80;;;;;3.00;98253.00;;;;110772;1250;41270;-67
2022/03/24 00:31:41;;;;;;;19.80;9.80;;;;;2.90;98253.20;;;;110995;1250;40813;-66
2022/03/24 00:34:10;;;;;;;29.20;11.90;;;;;2.90;98245.20;;;;111231;1250;41266;-66
2022/03/24 00:36:41;;;;;;;22.90;11.20;;;;;2.80;98250.00;;;;111254;1248;41245;-66
2022/03/24 00:39:13;;;;;;;23.70;11.00;;;;;2.70;98249.80;;;;111242;1247;41259;-66
2022/03/24 00:41:43;;;;;;;22.90;11.10;;;;;2.70;98248.60;;;;111203;1245;41144;-67
2022/03/24 00:44:15;;;;;;;21.60;9.50;;;;;2.60;98243.20;;;;110993;1248;42250;-66
2022/03/24 00:46:44;;;;;;;20.80;9.40;;;;;2.50;98245.20;;;;110878;1250;41128;-68
2022/03/24 00:49:13;;;;;;;20.50;9.00;;;;;2.44;98241.40;;;;111109;1250;41376;-68
2022/03/24 00:51:44;;;;;;;20.30;8.90;;;;;2.40;98242.20;;;;111222;1249;41156;-67
2022/03/24 00:54:18;;;;;;;22.50;9.30;;;;;2.30;98238.20;;;;111228;1248;42714;-66
2022/03/24 00:56:50;;;;;;;20.30;8.70;;;;;2.20;98240.40;;;;110920;1250;41667;-67
2022/03/24 00:59:22;;;;;;;18.40;8.20;;;;;2.20;98239.80;;;;110879;1249;41597;-68
2022/03/24 01:01:54;;;;;;;24.30;10.20;;;;;2.10;98235.80;;;;111109;1249;41933;-66
2022/03/24 01:04:24;;;;;;;21.20;9.90;;;;;2.10;98240.60;;;;111151;1249;41148;-66
2022/03/24 01:06:54;;;;;;;22.70;11.20;;;;;2.00;98232.80;;;;110975;1250;42544;-67
2022/03/24 01:09:24;;;;;;;28.80;11.30;;;;;2.00;98237.20;;;;111243;1248;41583;-67
2022/03/24 01:11:54;;;;;;;26.50;12.10;;;;;2.00;98231.60;;;;111160;1250;41615;-67
2022/03/24 01:14:25;;;;;;;28.50;12.80;;;;;1.94;98232.40;;;;110987;1249;41715;-66
2022/03/24 01:16:55;;;;;;;22.30;11.00;;;;;1.90;98223.20;;;;111246;1248;42099;-65
2022/03/24 01:19:25;;;;;;;18.70;9.40;;;;;1.80;98226.60;;;;111072;1248;41290;-65
2022/03/24 01:21:58;;;;;;;22.00;10.20;;;;;1.72;98225.40;;;;111077;1247;42829;-66
2022/03/24 01:24:28;;;;;;;20.00;9.40;;;;;1.70;98220.00;;;;110897;1249;42105;-68
2022/03/24 01:26:59;;;;;;;22.70;10.10;;;;;1.60;98221.60;;;;111094;1247;42207;-64
2022/03/24 01:29:30;;;;;;;20.30;8.70;;;;;1.50;98219.20;;;;110864;1250;42181;-67
2022/03/24 01:32:00;;;;;;;16.80;7.90;;;;;1.50;98224.40;;;;110822;1250;42382;-68
2022/03/24 01:34:29;;;;;;;19.30;7.70;;;;;1.40;98217.00;;;;110941;1250;41670;-66
2022/03/24 01:37:00;;;;;;;17.80;7.90;;;;;1.40;98214.20;;;;111202;1248;41926;-67
2022/03/24 01:39:31;;;;;;;15.00;6.90;;;;;1.32;98209.80;;;;111189;1248;41138;-67
2022/03/24 01:42:05;;;;;;;16.90;7.30;;;;;1.32;98210.20;;;;110954;1249;41161;-67
2022/03/24 01:44:35;;;;;;;15.10;6.80;;;;;1.30;98212.60;;;;111101;1249;42324;-67
2022/03/24 01:47:06;;;;;;;16.30;7.20;;;;;1.30;98206.60;;;;111152;1249;41281;-66
2022/03/24 01:49:39;;;;;;;20.30;10.00;;;;;1.30;98216.60;;;;111253;1247;42174;-66
2022/03/24 01:52:11;;;;;;;20.30;9.30;;;;;1.30;98210.00;;;;110944;1249;41133;-66
2022/03/24 01:54:49;;;;;;;20.60;8.40;;;;;1.30;98205.00;;;;111160;1250;41133;-66
2022/03/24 01:57:20;;;;;;;16.70;8.10;;;;;1.34;98207.00;;;;111275;1248;41276;-66
2022/03/24 01:59:51;;;;;;;22.20;9.20;;;;;1.40;98211.40;;;;110743;1251;41259;-67
2022/03/24 02:02:21;;;;;;;22.80;10.00;;;;;1.40;98210.80;;;;111183;1248;41295;-67
2022/03/24 02:04:54;;;;;;;24.80;10.10;;;;;1.40;98203.00;;;;111075;1247;42385;-66
2022/03/24 02:07:32;;;;;;;21.10;9.30;;;;;1.40;98207.20;;;;110966;1251;41152;-67
2022/03/24 02:10:08;;;;;;;19.60;9.00;;;;;1.30;98207.00;;;;111171;1249;41135;-66
2022/03/24 02:12:41;;;;;;;20.00;8.70;;;;;1.30;98210.20;;;;111155;1248;41146;-67
2022/03/24 02:15:11;;;;;;;23.90;9.70;;;;;1.20;98210.20;;;;111240;1249;42405;-67
2022/03/24 02:17:41;;;;;;;19.80;9.70;;;;;1.12;98210.00;;;;111170;1249;41271;-66
2022/03/24 02:20:11;;;;;;;14.90;7.70;;;;;1.10;98211.60;;;;110961;1248;41180;-67
2022/03/24 02:22:41;;;;;;;19.50;9.10;;;;;1.08;98206.40;;;;111195;1248;41138;-67
2022/03/24 02:25:11;;;;;;;18.80;9.40;;;;;1.00;98207.20;;;;110983;1251;41268;-67
2022/03/24 02:27:42;;;;;;;21.50;9.10;;;;;0.90;98210.00;;;;111033;1248;41130;-66
2022/03/24 02:30:13;;;;;;;18.40;8.30;;;;;0.80;98211.60;;;;111045;1249;41206;-67
2022/03/24 02:32:43;;;;;;;24.30;10.80;;;;;0.70;98204.20;;;;111032;1249;41253;-66
2022/03/24 02:35:14;;;;;;;;;;;;;0.60;98205.80;;;;111113;1248;42396;-66
2022/03/24 02:37:45;;;;;;;19.70;9.20;;;;;0.42;98211.80;;;;111043;1250;42403;-66
2022/03/24 02:40:14;;;;;;;21.50;10.70;;;;;0.40;98215.20;;;;111019;1249;41499;-66
2022/03/24 02:42:45;;;;;;;17.40;7.70;;;;;0.30;98218.40;;;;111044;1250;41241;-67
2022/03/24 02:45:16;;;;;;;17.80;7.70;;;;;0.30;98215.60;;;;111101;1248;41934;-66
2022/03/24 02:47:46;;;;;;;17.90;8.30;;;;;0.30;98208.20;;;;111121;1247;41799;-67
2022/03/24 02:50:16;;;;;;;17.50;8.70;;;;;0.30;98204.80;;;;111028;1247;41278;-67
2022/03/24 02:52:46;;;;;;;17.20;7.40;;;;;0.30;98210.20;;;;111090;1247;41515;-67
2022/03/24 02:55:17;;;;;;;17.40;8.40;;;;;0.20;98207.80;;;;111094;1249;41615;-67
2022/03/24 02:57:47;;;;;;;17.00;7.60;;;;;0.20;98206.80;;;;111232;1247;41594;-66
2022/03/24 03:00:17;;;;;;;16.40;7.90;;;;;0.20;98206.80;;;;111030;1247;41154;-66
2022/03/24 03:02:48;;;;;;;15.20;7.40;;;;;0.20;98206.00;;;;110936;1247;41180;-67
2022/03/24 03:05:20;;;;;;;17.30;8.00;;;;;0.10;98204.60;;;;110792;1251;41372;-67
2022/03/24 03:07:51;;;;;;;19.10;8.40;;;;;0.10;98203.60;;;;110925;1250;41681;-66
2022/03/24 03:10:21;;;;;;;15.80;7.90;;;;;0.10;98204.80;;;;111163;1250;41621;-67
2022/03/24 03:12:50;;;;;;;16.10;7.90;;;;;0.10;98209.40;;;;110952;1250;41943;-67
2022/03/24 03:15:22;;;;;;;14.40;7.40;;;;;0.08;98208.40;;;;110975;1248;41263;-66
2022/03/24 03:17:52;;;;;;;;;;;;;0.06;98203.80;;;;110858;1248;41212;-66
2022/03/24 03:20:24;;;;;;;20.10;8.70;;;;;0.00;98202.80;;;;111037;1249;41606;-66
2022/03/24 03:22:59;;;;;;;18.00;8.80;;;;;0.00;98200.80;;;;111010;1249;41248;-67
2022/03/24 03:25:30;;;;;;;19.20;9.00;;;;;0.00;98203.40;;;;111146;1247;41438;-68
2022/03/24 03:28:00;;;;;;;25.60;10.40;;;;;0.00;98202.60;;;;110946;1248;41485;-68
2022/03/24 03:30:30;;;;;;;22.00;10.20;;;;;-0.06;98199.00;;;;111043;1250;41148;-64
2022/03/24 03:33:01;;;;;;;23.90;12.20;;;;;-0.10;98194.20;;;;111097;1248;42377;-65
2022/03/24 03:35:31;;;;;;;24.30;11.20;;;;;-0.30;98192.00;;;;111088;1248;41345;-65
2022/03/24 03:38:02;;;;;;;26.00;12.20;;;;;-0.40;98194.80;;;;111246;1247;41257;-68
2022/03/24 03:40:33;;;;;;;26.20;12.70;;;;;-0.60;98190.00;;;;111034;1249;41200;-68
2022/03/24 03:43:03;;;;;;;23.00;11.00;;;;;-0.70;98191.40;;;;111080;1247;41619;-67
2022/03/24 03:45:34;;;;;;;19.90;9.70;;;;;-0.70;98198.40;;;;111068;1248;42523;-66
2022/03/24 03:48:06;;;;;;;25.60;10.80;;;;;-0.70;98190.60;;;;111156;1248;41246;-67
2022/03/24 03:50:37;;;;;;;21.50;10.20;;;;;-0.72;98192.40;;;;111134;1247;41609;-67
2022/03/24 03:53:08;;;;;;;19.50;9.50;;;;;-0.72;98194.20;;;;111229;1248;41167;-67
2022/03/24 03:55:39;;;;;;;16.40;7.80;;;;;-0.80;98194.20;;;;111264;1247;41158;-66
2022/03/24 03:58:11;;;;;;;16.50;8.20;;;;;-0.80;98189.20;;;;111075;1248;41865;-67
2022/03/24 04:00:58;;;;;;;20.60;9.10;;;;;-0.80;98195.20;;;;111013;1248;41234;-66
2022/03/24 04:03:30;;;;;;;18.90;8.80;;;;;-0.80;98199.80;;;;110964;1249;41131;-67
2022/03/24 04:06:08;;;;;;;18.00;9.10;;;;;-0.82;98197.20;;;;110978;1250;41128;-66
2022/03/24 04:08:39;;;;;;;21.10;8.40;;;;;-0.88;98196.40;;;;110772;1251;41303;-66
2022/03/24 04:11:10;;;;;;;21.20;8.70;;;;;-0.90;98193.40;;;;110977;1249;41154;-66
2022/03/24 04:13:40;;;;;;;;;;;;;-0.90;98192.80;;;;110697;1250;41453;-66
2022/03/24 04:16:11;;;;;;;17.20;7.90;;;;;-0.90;98197.80;;;;111064;1247;41560;-66
2022/03/24 04:18:43;;;;;;;14.50;6.70;;;;;-0.92;98197.00;;;;111069;1249;41263;-67
2022/03/24 04:21:13;;;;;;;16.70;8.20;;;;;-0.98;98197.00;;;;111118;1250;41239;-65
2022/03/24 04:23:43;;;;;;;15.00;7.10;;;;;-1.00;98201.00;;;;111231;1248;41630;-67
2022/03/24 04:26:13;;;;;;;16.30;8.50;;;;;-1.00;98196.60;;;;111220;1248;41155;-65
2022/03/24 04:28:45;;;;;;;24.20;9.40;;;;;-1.00;98198.20;;;;110902;1249;41281;-68
2022/03/24 04:31:16;;;;;;;19.00;8.60;;;;;-1.00;98196.80;;;;110878;1250;41258;-66
2022/03/24 04:33:46;;;;;;;20.80;9.10;;;;;-1.00;98196.00;;;;110977;1248;41131;-67
2022/03/24 04:36:16;;;;;;;18.90;8.10;;;;;-1.00;98191.00;;;;110949;1247;41254;-65
2022/03/24 04:38:45;;;;;;;18.80;8.20;;;;;-0.92;98189.00;;;;111049;1247;41349;-66
2022/03/24 04:41:14;;;;;;;18.50;8.70;;;;;-0.90;98187.80;;;;110794;1249;41718;-66
2022/03/24 04:43:45;;;;;;;16.50;8.10;;;;;-0.90;98186.60;;;;111308;1248;41786;-66
2022/03/24 04:46:14;;;;;;;19.10;8.70;;;;;-0.90;98182.00;;;;111015;1250;41958;-66
2022/03/24 04:48:44;;;;;;;18.40;8.20;;;;;-0.84;98184.60;;;;111004;1249;41707;-65
2022/03/24 04:51:16;;;;;;;16.20;8.00;;;;;-0.80;98178.00;;;;110884;1250;41609;-66
2022/03/24 04:53:46;;;;;;;18.00;8.10;;;;;-0.70;98175.80;;;;111053;1248;41842;-67
2022/03/24 04:56:16;;;;;;;20.20;10.00;;;;;-0.56;98175.20;;;;111289;1247;40749;-65
2022/03/24 04:58:45;;;;;;;20.60;10.80;;;;;-0.40;98178.40;;;;111083;1248;41463;-64
2022/03/24 05:01:16;;;;;;;22.30;10.60;;;;;-0.22;98175.00;;;;111000;1248;41249;-66
2022/03/24 05:03:46;;;;;;;27.60;14.90;;;;;-0.10;98175.00;;;;110895;1249;41144;-67
2022/03/24 05:06:16;;;;;;;31.40;13.60;;;;;0.00;98169.80;;;;111220;1247;41144;-66
2022/03/24 05:08:45;;;;;;;20.90;10.60;;;;;0.10;98169.00;;;;111226;1247;41124;-66
2022/03/24 05:11:14;;;;;;;21.60;11.30;;;;;0.24;98170.80;;;;111212;1248;41764;-66
2022/03/24 05:13:45;;;;;;;25.40;10.90;;;;;0.38;98169.60;;;;111231;1247;41165;-66
2022/03/24 05:16:15;;;;;;;25.20;11.30;;;;;0.50;98166.80;;;;111082;1250;41254;-66
2022/03/24 05:18:45;;;;;;;25.30;11.40;;;;;0.60;98166.40;;;;111194;1248;41259;-66
2022/03/24 05:21:14;;;;;;;18.60;9.10;;;;;0.70;98165.00;;;;111270;1247;41161;-66
2022/03/24 05:23:43;;;;;;;20.40;8.00;;;;;0.80;98171.40;;;;111211;1248;41155;-65
2022/03/24 05:26:13;;;;;;;17.70;8.10;;;;;0.90;98159.60;;;;111234;1248;41112;-66
2022/03/24 05:28:42;;;;;;;19.00;9.60;;;;;1.08;98162.60;;;;111215;1248;41052;-66
2022/03/24 05:31:11;;;;;;;20.30;8.90;;;;;1.20;98159.00;;;;111314;1248;41145;-66
2022/03/24 05:33:40;;;;;;;28.00;12.60;;;;;1.30;98157.80;;;;111034;1248;41155;-66
2022/03/24 05:36:11;;;;;;;27.50;13.60;;;;;1.50;98154.00;;;;111330;1246;41589;-66
2022/03/24 05:38:40;;;;;;;32.60;15.50;;;;;1.60;98155.20;;;;111160;1247;41169;-66
2022/03/24 05:41:10;;;;;;;30.40;15.20;;;;;1.70;98149.60;;;;111232;1248;41151;-66
2022/03/24 05:44:02;;;;;;;25.50;12.90;;;;;1.80;98155.80;;;;110804;1251;41142;-65
2022/03/24 05:46:39;;;;;;;22.20;10.60;;;;;1.96;98153.60;;;;111080;1247;41129;-68
2022/03/24 05:49:14;;;;;;;25.70;11.60;;;;;2.12;98155.00;;;;111080;1247;41133;-65
2022/03/24 05:52:03;;;;;;;22.20;11.50;;;;;2.30;98156.00;;;;110822;1250;42305;-68
2022/03/24 05:54:32;;;;;;;24.20;10.90;;;;;2.50;98154.80;;;;111053;1247;41621;-66
2022/03/24 05:57:02;;;;;;;22.60;10.60;;;;;2.70;98153.40;;;;111105;1247;41170;-66
2022/03/24 05:59:32;;;;;;;20.90;10.70;;;;;2.92;98142.80;;;;111015;1247;41647;-65
2022/03/24 06:02:01;;;;;;;23.00;10.50;;;;;3.16;98145.00;;;;111030;1247;41164;-66
2022/03/24 06:04:31;;;;;;;25.70;12.10;;;;;3.36;98150.60;;;;111259;1245;41277;-67
2022/03/24 06:07:01;;;;;;;25.60;11.50;;;;;3.52;98153.20;;;;110998;1247;41380;-66
2022/03/24 06:09:30;;;;;;;26.80;10.20;;;;;3.74;98145.80;;;;111287;1247;41373;-65
2022/03/24 06:12:00;;;;;;;26.30;11.30;;;;;3.98;98150.20;;;;111100;1247;41145;-66
2022/03/24 06:14:30;;;;;;;23.20;11.00;;;;;4.20;98151.60;;;;111218;1247;41149;-65
2022/03/24 06:16:59;;;;;;;25.40;10.50;;;;;4.42;98152.40;;;;111037;1247;41362;-66
2022/03/24 06:19:29;;;;;;;24.90;11.60;;;;;4.66;98146.80;;;;110727;1251;41216;-64
2022/03/24 06:21:59;;;;;;;25.50;13.10;;;;;4.90;98147.40;;;;111035;1247;41154;-65
2022/03/24 06:24:30;;;;;;;25.50;10.10;;;;;5.08;98143.60;;;;111012;1247;41136;-66
2022/03/24 06:26:59;;;;;;;22.20;10.00;;;;;5.22;98138.60;;;;111094;1247;42569;-67
2022/03/24 06:29:28;;;;;;;26.70;10.60;;;;;5.40;98133.00;;;;111049;1247;41182;-66
2022/03/24 06:31:58;;;;;;;22.70;9.60;;;;;5.56;98133.20;;;;111132;1247;41141;-67
2022/03/24 06:34:27;;;;;;;21.70;9.60;;;;;5.60;98128.80;;;;111037;1247;41386;-66
2022/03/24 06:36:56;;;;;;;20.10;9.10;;;;;5.70;98123.20;;;;111103;1248;41694;-66
2022/03/24 06:39:27;;;;;;;17.70;8.30;;;;;5.80;98122.40;;;;110814;1250;41165;-66
2022/03/24 06:41:56;;;;;;;18.50;8.80;;;;;6.00;98118.80;;;;111041;1248;41620;-66
2022/03/24 06:44:25;;;;;;;20.10;8.10;;;;;6.18;98114.20;;;;111099;1247;41345;-66
2022/03/24 06:46:55;;;;;;;24.10;9.60;;;;;6.34;98110.00;;;;111070;1247;42257;-67
2022/03/24 06:49:24;;;;;;;23.80;10.50;;;;;6.56;98109.00;;;;111003;1247;41953;-66
2022/03/24 06:51:54;;;;;;;24.00;11.20;;;;;6.78;98107.40;;;;111139;1247;42361;-66
2022/03/24 06:54:24;;;;;;;20.60;10.50;;;;;6.90;98106.80;;;;111057;1248;41251;-64
2022/03/24 06:56:53;;;;;;;28.40;9.00;;;;;7.00;98106.60;;;;111090;1247;41131;-66
2022/03/24 06:59:24;;;;;;;19.50;10.00;;;;;7.10;98101.40;;;;111176;1247;41248;-66
2022/03/24 07:01:54;;;;;;;23.00;9.50;;;;;7.30;98098.00;;;;111031;1251;41253;-66
2022/03/24 07:04:24;;;;;;;18.00;9.10;;;;;7.48;98096.00;;;;111165;1247;40721;-67
2022/03/24 07:06:53;;;;;;;21.50;10.60;;;;;7.62;98095.60;;;;110880;1248;41314;-65
2022/03/24 07:09:22;;;;;;;21.40;11.70;;;;;7.80;98093.20;;;;111035;1247;41146;-63
2022/03/24 07:11:54;;;;;;;26.30;11.40;;;;;8.00;98091.40;;;;111090;1248;41138;-62
2022/03/24 07:14:23;;;;;;;;;;;;;8.14;98089.20;;;;111072;1247;41600;-64
2022/03/24 07:16:52;;;;;;;30.30;12.50;;;;;8.30;98095.00;;;;111034;1248;41247;-63
2022/03/24 07:19:22;;;;;;;24.10;11.20;;;;;8.50;98096.20;;;;111068;1247;41608;-62
2022/03/24 07:21:51;;;;;;;20.30;10.70;;;;;8.64;98087.00;;;;111010;1248;41181;-63
2022/03/24 07:24:24;;;;;;;21.60;10.90;;;;;8.80;98089.20;;;;111118;1249;41161;-63
2022/03/24 07:26:54;;;;;;;22.30;9.90;;;;;9.00;98090.00;;;;110987;1249;42627;-64
2022/03/24 07:29:24;;;;;;;22.80;10.80;;;;;9.22;98088.20;;;;110866;1250;42481;-66
2022/03/24 07:31:54;;;;;;;22.50;10.30;;;;;9.42;98088.40;;;;110618;1247;612344;-63
2022/03/24 07:34:23;;;;;;;21.30;11.50;;;;;9.64;98083.80;;;;111079;1248;41146;-63
2022/03/24 07:36:53;;;;;;;21.00;10.20;;;;;9.90;98080.60;;;;111072;1250;41118;-63
2022/03/24 07:39:22;;;;;;;23.50;11.80;;;;;10.10;98074.80;;;;110935;1250;41347;-64
2022/03/24 07:41:51;;;;;;;23.20;12.10;;;;;10.26;98076.60;;;;111086;1247;41282;-64
2022/03/24 07:44:21;;;;;;;19.20;9.90;;;;;10.40;98067.20;;;;110997;1247;41158;-64
2022/03/24 07:46:51;;;;;;;22.20;9.70;;;;;10.60;98067.60;;;;111033;1248;42393;-65
2022/03/24 07:49:21;;;;;;;24.70;10.50;;;;;10.80;98064.60;;;;111071;1247;41239;-65
2022/03/24 07:51:50;;;;;;;27.00;10.80;;;;;10.90;98064.80;;;;110917;1250;41155;-64
2022/03/24 07:54:40;;;;;;;21.90;10.30;;;;;11.10;98062.20;;;;111107;1247;42374;-64
2022/03/24 07:57:09;;;;;;;22.80;11.50;;;;;11.20;98057.20;;;;111067;1248;41151;-65
2022/03/24 07:59:40;;;;;;;21.60;10.50;;;;;11.40;98047.80;;;;111045;1247;41433;-65
2022/03/24 08:02:11;;;;;;;21.30;10.40;;;;;11.50;98044.20;;;;111141;1247;41155;-65
2022/03/24 08:04:40;;;;;;;24.90;10.10;;;;;11.70;98037.00;;;;111146;1248;41192;-64
2022/03/24 08:07:10;;;;;;;25.10;10.50;;;;;11.90;98032.20;;;;111021;1248;41159;-64
2022/03/24 08:09:39;;;;;;;20.70;10.80;;;;;12.10;98031.20;;;;111082;1247;41266;-66
2022/03/24 08:12:10;;;;;;;22.70;10.80;;;;;12.24;98028.00;;;;110965;1250;42376;-65
2022/03/24 08:14:39;;;;;;;21.50;9.40;;;;;12.40;98034.60;;;;111090;1247;41135;-64
2022/03/24 08:17:08;;;;;;;19.00;8.60;;;;;12.60;98036.80;;;;111025;1248;41884;-62
2022/03/24 08:19:38;;;;;;;16.30;8.30;;;;;12.90;98017.80;;;;111039;1247;41731;-64
2022/03/24 08:22:07;;;;;;;15.70;7.50;;;;;13.40;98019.80;;;;111210;1246;41874;-64
2022/03/24 08:24:37;;;;;;;17.80;8.30;;;;;13.90;98016.20;;;;111115;1247;42008;-65
2022/03/24 08:27:06;;;;;;;18.50;7.60;;;;;14.20;98013.80;;;;111151;1247;41134;-65
2022/03/24 08:29:35;;;;;;;18.00;8.60;;;;;14.44;98011.00;;;;111128;1247;41182;-61
2022/03/24 08:32:05;;;;;;;17.30;8.50;;;;;14.60;98009.80;;;;110976;1248;41280;-64
2022/03/24 08:34:34;;;;;;;18.70;8.10;;;;;14.80;98001.60;;;;111004;1247;41168;-72
2022/03/24 08:37:04;;;;;;;13.40;7.10;;;;;14.98;97998.00;;;;111085;1247;41769;-69
2022/03/24 08:39:33;;;;;;;18.90;7.90;;;;;15.10;98000.00;;;;111008;1248;41368;-67
2022/03/24 08:42:03;;;;;;;22.70;8.10;;;;;15.40;97994.20;;;;111052;1247;41714;-65
2022/03/24 08:44:32;;;;;;;15.70;6.40;;;;;15.58;97990.40;;;;111101;1248;41602;-66
2022/03/24 08:47:01;;;;;;;18.60;8.00;;;;;15.92;97990.40;;;;111068;1248;41410;-64
2022/03/24 08:49:32;;;;;;;14.40;6.90;;;;;16.38;97984.80;;;;111193;1247;41164;-66
2022/03/24 08:52:10;;;;;;;16.90;8.60;;;;;16.90;97977.80;;;;111009;1247;42149;-66
2022/03/24 08:54:39;;;;;;;19.70;8.40;;;;;17.08;97973.40;;;;110979;1247;41619;-65
2022/03/24 08:57:10;;;;;;;15.70;7.50;;;;;17.38;97978.00;;;;111090;1248;41682;-65
2022/03/24 08:59:39;;;;;;;23.20;10.40;;;;;17.84;97976.00;;;;111054;1249;41201;-66
2022/03/24 09:02:08;;;;;;;20.80;10.90;;;;;18.22;97971.60;;;;111050;1248;41149;-64
2022/03/24 09:04:39;;;;;;;19.30;10.10;;;;;19.50;97961.40;;;;111039;1247;41149;-66
2022/03/24 09:07:30;;;;;;;21.80;10.10;;;;;21.38;97953.60;;;;110964;1248;41159;-65
2022/03/24 09:09:59;;;;;;;17.80;10.20;;;;;22.80;97951.20;;;;110986;1247;41155;-65
2022/03/24 09:12:29;;;;;;;24.00;11.40;;;;;23.66;97944.20;;;;111019;1247;41896;-65
2022/03/24 09:14:59;;;;;;;24.30;11.20;;;;;24.44;97934.60;;;;110851;1247;41587;-69
2022/03/24 09:17:28;;;;;;;19.10;9.40;;;;;24.70;97932.00;;;;110943;1249;41618;-66
2022/03/24 09:19:58;;;;;;;18.00;9.20;;;;;24.78;97930.20;;;;111063;1247;41374;-66
2022/03/24 09:22:28;;;;;;;19.40;10.10;;;;;26.02;97927.00;;;;110811;1249;41750;-68
2022/03/24 09:24:57;;;;;;;20.90;9.90;;;;;26.36;97925.60;;;;111019;1247;41862;-69
2022/03/24 09:27:27;;;;;;;17.20;8.60;;;;;25.96;97923.40;;;;111003;1247;41774;-65
2022/03/24 09:29:56;;;;;;;17.80;8.70;;;;;26.10;97926.60;;;;111052;1250;41955;-71
2022/03/24 09:32:25;;;;;;;15.40;7.80;;;;;26.92;97918.60;;;;111064;1248;41203;-68
2022/03/24 09:34:55;;;;;;;14.60;7.80;;;;;27.40;97928.00;;;;110887;1248;41149;-68
2022/03/24 09:37:24;;;;;;;19.80;8.10;;;;;27.56;97919.80;;;;111019;1248;41609;-68
2022/03/24 09:39:54;;;;;;;14.80;7.20;;;;;28.30;97920.60;;;;111075;1247;41161;-65
2022/03/24 09:42:24;;;;;;;17.90;7.90;;;;;28.74;97910.60;;;;111117;1247;41144;-69
2022/03/24 09:44:57;;;;;;;14.80;7.40;;;;;29.02;97906.40;;;;111226;1246;41185;-69
2022/03/24 09:47:28;;;;;;;17.80;8.10;;;;;29.22;97903.60;;;;110989;1247;41166;-68
2022/03/24 09:49:57;;;;;;;;;;;;;28.44;97899.40;;;;111140;1247;41219;-67
2022/03/24 09:52:26;;;;;;;16.20;7.30;;;;;28.52;97898.20;;;;111143;1245;42365;-66
2022/03/24 09:54:56;;;;;;;17.20;8.70;;;;;28.58;97905.60;;;;111122;1247;41124;-67
2022/03/24 09:57:25;;;;;;;18.30;7.30;;;;;28.70;97904.00;;;;111097;1246;41624;-69
2022/03/24 09:59:54;;;;;;;17.50;8.10;;;;;28.86;97899.20;;;;111069;1250;41155;-66
2022/03/24 10:02:24;;;;;;;16.30;7.60;;;;;29.24;97893.80;;;;111086;1248;41157;-66
2022/03/24 10:05:00;;;;;;;17.30;7.20;;;;;30.28;97886.40;;;;110848;1249;42527;-67
2022/03/24 10:07:34;;;;;;;22.30;9.50;;;;;31.26;97883.40;;;;110930;1247;41616;-67
2022/03/24 10:10:04;;;;;;;16.30;8.60;;;;;30.48;97879.80;;;;111108;1247;41356;-69
2022/03/24 10:12:38;;;;;;;14.90;7.40;;;;;29.44;97889.20;;;;111077;1247;41203;-66
2022/03/24 10:15:12;;;;;;;15.20;7.40;;;;;29.40;97887.00;;;;111139;1247;41604;-65
2022/03/24 10:17:50;;;;;;;18.10;7.50;;;;;29.24;97879.00;;;;110916;1247;41737;-69
2022/03/24 10:20:20;;;;;;;12.40;6.00;;;;;29.94;97878.80;;;;111052;1248;41511;-68
2022/03/24 10:23:03;;;;;;;14.10;6.50;;;;;31.64;97872.80;;;;111018;1247;42384;-66
2022/03/24 10:25:34;;;;;;;13.80;6.40;;;;;33.68;97870.00;;;;111092;1249;41910;-67
2022/03/24 10:28:12;;;;;;;16.40;7.90;;;;;35.22;97858.80;;;;111142;1247;41605;-67
2022/03/24 10:30:50;;;;;;;17.70;7.10;;;;;35.50;97862.00;;;;111107;1248;41199;-67
2022/03/24 10:33:34;;;;;;;15.90;7.40;;;;;35.76;97855.60;;;;111156;1247;41523;-66
2022/03/24 10:36:18;;;;;;;14.40;6.80;;;;;36.88;97855.60;;;;111169;1248;41608;-66
2022/03/24 10:38:49;;;;;;;15.10;7.30;;;;;35.82;97848.00;;;;110856;1249;41122;-65
2022/03/24 10:41:23;;;;;;;16.20;6.90;;;;;36.56;97841.00;;;;111100;1247;41142;-65
2022/03/24 10:43:58;;;;;;;14.30;6.60;;;;;37.16;97835.20;;;;111130;1248;41198;-69
2022/03/24 10:46:29;;;;;;;14.90;7.20;;;;;38.08;97827.60;;;;111144;1247;41251;-67
2022/03/24 10:48:59;;;;;;;14.30;7.00;;;;;39.12;97821.40;;;;111061;1247;41590;-70
2022/03/24 10:51:31;;;;;;;12.30;6.10;;;;;38.44;97809.60;;;;111063;1247;41610;-70
2022/03/24 10:54:15;;;;;;;12.90;6.20;;;;;37.78;97806.20;;;;111038;1247;41894;-70
2022/03/24 10:57:13;;;;;;;10.40;5.50;;;;;38.24;97804.20;;;;111127;1247;41462;-71
2022/03/24 10:59:46;;;;;;;13.90;5.80;;;;;39.62;97802.20;;;;111159;1248;41265;-70
2022/03/24 11:02:15;;;;;;;13.70;6.60;;;;;40.66;97797.00;;;;111142;1247;41293;-71
2022/03/24 11:04:45;;;;;;;12.80;5.20;;;;;40.52;97786.20;;;;110977;1247;41350;-71
2022/03/24 11:07:24;;;;;;;;;;;;;40.70;97790.00;;;;110764;1248;41609;-71
2022/03/24 11:09:53;;;;;;;29.00;6.80;;;;;41.52;97780.60;;;;111214;1248;41484;-69
2022/03/24 11:12:36;;;;;;;12.20;6.40;;;;;41.06;97777.60;;;;110885;1247;41172;-66
2022/03/24 11:15:07;;;;;;;13.20;6.10;;;;;40.10;97778.20;;;;111057;1247;41196;-73
2022/03/24 11:17:37;;;;;;;11.90;5.60;;;;;38.24;97775.60;;;;111057;1247;41191;-67
2022/03/24 11:20:13;;;;;;;12.50;5.30;;;;;39.06;97768.40;;;;110821;1247;42367;-72
2022/03/24 11:23:01;;;;;;;9.80;5.00;;;;;39.28;97758.40;;;;111163;1248;41734;-68
2022/03/24 11:25:31;;;;;;;9.40;4.40;;;;;39.92;97755.20;;;;111218;1247;41370;-69
2022/03/24 11:28:02;;;;;;;11.10;5.50;;;;;40.68;97749.40;;;;111165;1246;41243;-71
2022/03/24 11:30:31;;;;;;;12.20;6.00;;;;;40.68;97739.20;;;;111111;1248;41204;-70
2022/03/24 11:33:02;;;;;;;11.00;4.70;;;;;36.18;97738.20;;;;111200;1248;41317;-68
2022/03/24 11:35:34;;;;;;;10.90;4.50;;;;;35.38;97731.00;;;;111183;1248;42336;-68
2022/03/24 11:38:04;;;;;;;12.00;4.60;;;;;36.46;97727.60;;;;111148;1247;41595;-70
2022/03/24 11:40:34;;;;;;;10.20;4.30;;;;;37.46;97720.80;;;;111173;1247;41268;-70
2022/03/24 11:43:11;;;;;;;10.50;4.50;;;;;38.14;97715.20;;;;110906;1247;41151;-72
2022/03/24 11:45:54;;;;;;;11.40;5.00;;;;;38.98;97708.80;;;;111247;1247;41136;-71
2022/03/24 11:48:33;;;;;;;11.50;4.80;;;;;38.88;97707.60;;;;111215;1247;41762;-70
2022/03/24 11:51:20;;;;;;;10.40;4.60;;;;;38.44;97703.40;;;;111183;1247;41591;-71
2022/03/24 11:54:04;;;;;;;10.20;4.40;;;;;37.98;97704.20;;;;111098;1247;41196;-75
2022/03/24 11:56:34;;;;;;;12.30;4.80;;;;;37.92;97695.60;;;;111198;1248;42615;-71
2022/03/24 11:59:05;;;;;;;10.60;4.90;;;;;36.96;97693.60;;;;111198;1247;41249;-70
2022/03/24 12:01:35;;;;;;;11.80;5.50;;;;;35.68;97680.00;;;;111198;1248;41600;-68
2022/03/24 12:04:08;;;;;;;12.40;4.80;;;;;33.70;97680.40;;;;110998;1247;42938;-70
2022/03/24 12:06:41;;;;;;;10.50;4.70;;;;;32.74;97683.20;;;;111044;1248;42375;-71
2022/03/24 12:09:13;;;;;;;11.80;5.00;;;;;32.98;97683.40;;;;111036;1247;41264;-72
2022/03/24 12:11:52;;;;;;;10.10;4.40;;;;;33.10;97670.60;;;;110996;1248;41163;-69
2022/03/24 12:14:37;;;;;;;10.70;4.90;;;;;33.30;97665.20;;;;111113;1248;41138;-70
2022/03/24 12:17:18;;;;;;;10.30;4.70;;;;;33.50;97663.40;;;;111068;1247;41149;-71
2022/03/24 12:19:50;;;;;;;11.40;4.60;;;;;32.74;97658.60;;;;111115;1248;41147;-70
2022/03/24 12:22:32;;;;;;;9.90;4.50;;;;;32.50;97655.60;;;;111138;1247;41613;-69